Terminal Aerodrome Forecast
Issued by NWS Wilmington, OH

Current Version | Previous Version | Text Only | Print | Product List | Glossary Off
Versions: 1 2 3 4 5 6 7 8 9 10 11 12 13 14 15 16 17 18 19 20 21 22 23 24 25

000
FTUS41 KILN 191500 AAA
TAFDAY
TAF AMD
KDAY 191518Z 1915/2012 27005KT P6SM SCT035
      TEMPO 1915/1917 BKN025
     FM192300 22004KT P6SM SCT250
     FM200900 20008KT P6SM BKN100=

USA.gov is the U.S. government's official web portal to all federal, state and local government web resources and services.